Aérodrome :
LOGIN :

S'inscrire | Disclaimer

   EN    FR    IT 

 










Légende :    VFR   VFR Marginal   IFR   IFR Intensif   IFR Très Intensif
Visi : 
Plafond : 
>= 8 km
>= 3000ft
5 à 8 km
1000 à 3000 ft
1500m à 5 km
500 à 1000 ft
800 à 1500m
200 à 500 ft
< 800m
< 200 ft
Symboles :   Orages  Brouillard  Fortes neiges  Fortes précipitations  Vent > 20 kt
SIGMETs :   Divers  Orages  Givrage  Turbulence  Onde Orograph.  Cendres Volcan.






- Altitude de l'aérodrome : 506 ft
- Code IATA : GOT


ESGG - Landvetter

DERNIER METAR :
  • 290750Z 03004KT 350V060 CAVOK 16/04 Q1030

METARs EXPIRÉS :
  • 290720Z 35003KT 300V040 CAVOK 15/05 Q1030
  • 290650Z 03003KT 330V090 CAVOK 14/05 Q1030
  • 290620Z 33004KT 300V020 CAVOK 12/06 Q1030
  • 290550Z 36004KT 320V030 CAVOK 11/04 Q1030
  • 290520Z 01004KT CAVOK 11/04 Q1030

TAF TAF ESGG
Valide du 29 à 06h jusqu'au 30 à 06h UTC


290530Z 2906/3006 36004KT CAVOK



MET'MAP, la Météo Aéronautique d'un coup d'oeil ! - Copyright ORBIFLY Décembre 2007 - Disclaimer

ORBIFLY MET'MAP TEAM :

Programmation & Développement : Alexandra Zaïnal
Sur une idée originale de : Baudouin d'Aumeries
Assistance à la programmation : Marc-Olivier Méhu
Soutien technique & logistique : Manuel Goepfert

Contact : metmap@orbifly.com




SOURCES & CREDITS :

   NOAA